ムンバイ の空港の天気 - METARとTAF

チャットラパティー・シヴァージー国際空港 ( VABB / BOM ) - インド ムンバイ
飛行場実況気象(Metar)
観測時間08/17 17:00 IST (08/17 11:30 UTC)
風向・風速南西 6m/s
視程4000m
天気現象
全天の4割程度の雲 雲底高度 550m
全天の4割程度の雲 雲底高度 760m
少しの雲 雲底高度 760m
気温29℃
湿度79%
気圧1005hPa
METARVABB 171130Z 23012KT 4000 FU SCT018 SCT025 FEW025TCU 29/25 Q1005 BECMG 5000 FU
過去の天気等 Google飛行場航空写真 Wunderground天気予報

過去48時間のMETAR

飛行場予報(TAF)
発表時間: 8/17 16:30 IST (8/17 11:00 UTC)
予報対象時間: 17日17時 IST ~ 18日2時 IST
風向・風速西南西 5m/s
視程4000m
天気現象煙霧
全天の4割程度の雲 雲底高度 550m
全天の4割程度の雲 雲底高度 760m
全天の8割程度の雲 雲底高度 2740m
17日17時 IST ~ 18日2時 IST に一時的に
風向・風速西南西 5m/s 瞬間風速 10m/s
視程2000m
天気現象弱いしゅう雨 弱い雨
全天の4割程度の雲 雲底高度 370m
少しの塔状積雲 雲底高度 760m
全天を覆う雲 雲底高度 2440m
17日18時 IST ~ 17日20時 IST に徐々に
視程3000m
天気現象煙霧
TAF VABB 171100Z 1712/1721 24010KT 4000 HZ SCT018 SCT025 BKN090
TEMPO 1712/1721 24010G20KT 2000 -SHRA -RA SCT012 FEW025TCU OVC080
BECMG 1713/1715 3000 HZ